Time;durP1;ratioP1;P1;durP2;ratioP2;P2;SDS_P1;SDS_P2;PMS_P1;PMS_P2;Temp;Humidity;BMP_temperature;BMP_pressure;BME280_temperature;BME280_humidity;BME280_pressure;Samples;Min_cycle;Max_cycle;Signal;HPM_P1;HPM_P2
2023/09/11 00:01:43;;;;;;;32.00;28.60;;;17.20;99.90;;;;;;5065528;28;20508;-62
2023/09/11 00:04:12;;;;;;;33.20;29.73;;;17.30;99.90;;;;;;5064098;28;20548;-63
2023/09/11 00:06:41;;;;;;;32.30;29.10;;;17.30;99.90;;;;;;5057538;28;20473;-62
2023/09/11 00:09:09;;;;;;;33.00;29.50;;;17.40;99.90;;;;;;5063939;28;20475;-63
2023/09/11 00:11:37;;;;;;;32.13;29.10;;;17.40;99.90;;;;;;5061935;28;20596;-63
2023/09/11 00:14:05;;;;;;;33.40;30.00;;;17.40;99.90;;;;;;5058924;28;20462;-62
2023/09/11 00:16:33;;;;;;;34.03;30.63;;;17.50;99.90;;;;;;5057843;28;20465;-61
2023/09/11 00:19:01;;;;;;;32.23;29.17;;;17.50;99.90;;;;;;5055934;28;20476;-62
2023/09/11 00:21:30;;;;;;;30.60;27.47;;;17.50;99.90;;;;;;5056185;28;20491;-63
2023/09/11 00:23:58;;;;;;;31.27;27.97;;;17.40;99.90;;;;;;5054069;28;20573;-61
2023/09/11 00:26:26;;;;;;;29.37;26.57;;;17.40;99.90;;;;;;5052467;28;20488;-62
2023/09/11 00:28:54;;;;;;;31.00;27.80;;;17.40;99.90;;;;;;5060575;28;20465;-61
2023/09/11 00:31:22;;;;;;;31.03;28.03;;;17.30;99.90;;;;;;5054184;28;20495;-62
2023/09/11 00:33:50;;;;;;;31.47;28.57;;;17.30;99.90;;;;;;5059912;28;20472;-63
2023/09/11 00:36:18;;;;;;;29.73;26.90;;;17.20;99.90;;;;;;5062199;28;20898;-62
2023/09/11 00:38:50;;;;;;;28.90;26.13;;;17.20;99.90;;;;;;5061884;28;20496;-63
2023/09/11 00:41:18;;;;;;;29.60;26.80;;;17.10;99.90;;;;;;5058936;28;20477;-63
2023/09/11 00:43:46;;;;;;;29.23;26.30;;;17.10;99.90;;;;;;5061988;28;20469;-63
2023/09/11 00:46:14;;;;;;;28.27;25.57;;;17.10;99.90;;;;;;5065163;28;20583;-62
2023/09/11 00:48:42;;;;;;;30.63;27.43;;;17.10;99.90;;;;;;5064427;28;20839;-63
2023/09/11 00:51:11;;;;;;;30.07;27.10;;;17.00;99.90;;;;;;5059659;28;20551;-63
2023/09/11 00:53:39;;;;;;;29.60;26.80;;;17.00;99.90;;;;;;5060471;28;20465;-63
2023/09/11 00:56:08;;;;;;;28.80;25.80;;;17.00;99.90;;;;;;5066581;28;20499;-62
2023/09/11 00:58:37;;;;;;;30.00;27.00;;;16.90;99.90;;;;;;5063891;28;20900;-62
2023/09/11 01:01:06;;;;;;;28.93;26.30;;;16.90;99.90;;;;;;5055136;28;20485;-62
2023/09/11 01:03:34;;;;;;;29.80;26.90;;;16.90;99.90;;;;;;5058644;28;20780;-62
2023/09/11 01:06:03;;;;;;;28.13;25.30;;;16.90;99.90;;;;;;5063821;28;20497;-63
2023/09/11 01:08:32;;;;;;;31.70;28.50;;;16.90;99.90;;;;;;5056351;28;20481;-63
2023/09/11 01:11:00;;;;;;;29.67;26.67;;;16.90;99.90;;;;;;5062857;28;20511;-62
2023/09/11 01:13:29;;;;;;;30.53;27.50;;;16.90;99.90;;;;;;5055430;28;20486;-63
2023/09/11 01:16:03;;;;;;;31.40;28.20;;;16.80;99.90;;;;;;5063340;28;20489;-63
2023/09/11 01:18:39;;;;;;;27.33;24.70;;;16.80;99.90;;;;;;5058635;28;20469;-63
2023/09/11 01:21:40;;;;;;;29.57;26.80;;;16.80;99.90;;;;;;5051777;28;20488;-63
2023/09/11 01:24:32;;;;;;;29.17;26.27;;;16.70;99.90;;;;;;5049813;28;20557;-62
2023/09/11 01:27:33;;;;;;;28.57;25.70;;;16.70;99.90;;;;;;5060455;28;20469;-62
2023/09/11 01:30:05;;;;;;;30.27;27.13;;;16.70;99.90;;;;;;5057727;28;20912;-62
2023/09/11 01:32:33;;;;;;;28.47;25.70;;;16.70;99.90;;;;;;5060872;28;20528;-62
2023/09/11 01:35:02;;;;;;;30.60;27.70;;;16.60;99.90;;;;;;5052133;28;20899;-63
2023/09/11 01:37:31;;;;;;;29.70;26.80;;;16.60;99.90;;;;;;5053394;28;20465;-62
2023/09/11 01:39:59;;;;;;;29.87;26.97;;;16.60;99.90;;;;;;5061077;28;20470;-63
2023/09/11 01:42:32;;;;;;;29.83;26.73;;;16.60;99.90;;;;;;5060122;28;20507;-63
2023/09/11 01:45:02;;;;;;;29.90;26.93;;;16.50;99.90;;;;;;5062831;28;21106;-63
2023/09/11 01:47:33;;;;;;;31.00;27.80;;;16.50;99.90;;;;;;5062154;28;20556;-62
2023/09/11 01:50:03;;;;;;;29.70;26.80;;;16.50;99.90;;;;;;5058433;28;20485;-63
2023/09/11 01:52:33;;;;;;;30.30;27.50;;;16.50;99.90;;;;;;5059431;28;20580;-63
2023/09/11 01:55:02;;;;;;;29.93;26.97;;;16.50;99.90;;;;;;5060446;28;20488;-63
2023/09/11 01:57:30;;;;;;;31.57;28.17;;;16.40;99.90;;;;;;5060465;28;20469;-63
2023/09/11 01:59:58;;;;;;;29.03;26.13;;;16.40;99.90;;;;;;5059638;28;23880;-63
2023/09/11 02:02:29;;;;;;;30.23;27.00;;;16.40;99.90;;;;;;5062125;28;20718;-63
2023/09/11 02:04:57;;;;;;;28.77;26.00;;;16.40;99.90;;;;;;5058122;28;20492;-62
2023/09/11 02:07:25;;;;;;;30.07;27.03;;;16.40;99.90;;;;;;5060871;28;20474;-62
2023/09/11 02:09:53;;;;;;;32.07;28.87;;;16.40;99.90;;;;;;5061053;28;20530;-63
2023/09/11 02:12:22;;;;;;;29.70;26.90;;;16.40;99.90;;;;;;5059885;28;20588;-63
2023/09/11 02:14:50;;;;;;;30.77;27.60;;;16.40;99.90;;;;;;5065476;28;20568;-63
2023/09/11 02:17:18;;;;;;;31.50;28.23;;;16.40;99.90;;;;;;5059870;28;20535;-62
2023/09/11 02:19:47;;;;;;;31.93;28.67;;;16.50;99.90;;;;;;5059865;28;20494;-62
2023/09/11 02:22:16;;;;;;;31.83;28.63;;;16.40;99.90;;;;;;5062068;28;20485;-62
2023/09/11 02:24:44;;;;;;;33.23;29.93;;;16.40;99.90;;;;;;5058807;28;20579;-62
2023/09/11 02:27:12;;;;;;;31.87;28.53;;;16.40;99.90;;;;;;5059975;28;22359;-62
2023/09/11 02:29:40;;;;;;;30.77;27.57;;;16.40;99.90;;;;;;5063005;28;20471;-62
2023/09/11 02:32:08;;;;;;;31.67;28.47;;;16.40;99.90;;;;;;5066092;28;20489;-62
2023/09/11 02:34:36;;;;;;;30.63;27.53;;;16.40;99.90;;;;;;5064916;28;21023;-62
2023/09/11 02:37:05;;;;;;;31.40;28.30;;;16.30;99.90;;;;;;5068401;28;20492;-63
2023/09/11 02:39:33;;;;;;;33.30;29.87;;;16.30;99.90;;;;;;5064840;28;20519;-62
2023/09/11 02:42:01;;;;;;;34.47;30.87;;;16.30;99.90;;;;;;5066330;28;20517;-62
2023/09/11 02:44:29;;;;;;;29.97;26.97;;;16.30;99.90;;;;;;5067514;28;20534;-62
2023/09/11 02:46:57;;;;;;;33.07;29.63;;;16.40;99.90;;;;;;5063323;28;20481;-62
2023/09/11 02:49:25;;;;;;;31.50;28.20;;;16.40;99.90;;;;;;5063591;28;20807;-62
2023/09/11 02:51:53;;;;;;;33.60;29.27;;;16.30;99.90;;;;;;5069128;28;20829;-63
2023/09/11 02:54:22;;;;;;;32.83;29.37;;;16.30;99.90;;;;;;5064866;28;20520;-62
2023/09/11 02:56:50;;;;;;;31.00;27.90;;;16.30;99.90;;;;;;5060360;28;20480;-63
2023/09/11 02:59:18;;;;;;;30.87;27.67;;;16.30;99.90;;;;;;5065850;28;20478;-63
2023/09/11 03:01:46;;;;;;;32.27;28.80;;;16.30;99.90;;;;;;5063813;28;20489;-62
2023/09/11 03:04:14;;;;;;;29.87;26.87;;;16.30;99.90;;;;;;5058572;28;20965;-62
2023/09/11 03:06:42;;;;;;;34.23;30.83;;;16.30;99.90;;;;;;5059724;28;20568;-63
2023/09/11 03:09:11;;;;;;;33.60;29.93;;;16.30;99.90;;;;;;5060297;28;20508;-63
2023/09/11 03:11:40;;;;;;;34.47;30.87;;;16.30;99.90;;;;;;5061109;28;22023;-63
2023/09/11 03:14:11;;;;;;;34.07;30.43;;;16.30;99.90;;;;;;5065121;28;21082;-63
2023/09/11 03:16:43;;;;;;;32.87;29.50;;;16.30;99.90;;;;;;5062036;28;20470;-63
2023/09/11 03:19:11;;;;;;;36.33;32.43;;;16.30;99.90;;;;;;5058666;28;20556;-63
2023/09/11 03:21:39;;;;;;;32.07;28.80;;;16.30;99.90;;;;;;5065303;28;20594;-63
2023/09/11 03:24:08;;;;;;;32.50;29.00;;;16.30;99.90;;;;;;5062271;28;20991;-62
2023/09/11 03:26:36;;;;;;;33.17;29.23;;;16.30;99.90;;;;;;5063685;28;20568;-63
2023/09/11 03:29:06;;;;;;;34.67;30.97;;;16.20;99.90;;;;;;5056092;28;20469;-61
2023/09/11 03:31:34;;;;;;;34.37;30.70;;;16.20;99.90;;;;;;5056686;28;20497;-63
2023/09/11 03:34:01;;;;;;;32.43;28.97;;;16.20;99.90;;;;;;5061711;28;20495;-63
2023/09/11 03:36:30;;;;;;;32.83;29.53;;;16.20;99.90;;;;;;5055843;28;20632;-63
2023/09/11 03:38:58;;;;;;;31.00;27.90;;;16.20;99.90;;;;;;5059081;28;20564;-63
2023/09/11 03:41:26;;;;;;;30.80;27.60;;;16.20;99.90;;;;;;5059482;28;20870;-63
2023/09/11 03:43:54;;;;;;;33.50;30.00;;;16.20;99.90;;;;;;5059069;28;20880;-63
2023/09/11 03:46:24;;;;;;;31.43;28.10;;;16.20;99.90;;;;;;5058705;28;20495;-62
2023/09/11 03:48:52;;;;;;;30.80;27.60;;;16.10;99.90;;;;;;5053643;28;20482;-62
2023/09/11 03:51:20;;;;;;;32.07;28.60;;;16.10;99.90;;;;;;5057366;28;21029;-61
2023/09/11 03:53:51;;;;;;;31.27;28.13;;;16.10;99.90;;;;;;5059165;28;20503;-63
2023/09/11 03:56:19;;;;;;;30.23;27.20;;;16.00;99.90;;;;;;5055225;28;20568;-62
2023/09/11 03:58:47;;;;;;;31.93;28.53;;;16.00;99.90;;;;;;5058383;28;21254;-62
2023/09/11 04:01:16;;;;;;;29.93;26.93;;;16.00;99.90;;;;;;5062038;28;20474;-62
2023/09/11 04:03:45;;;;;;;30.63;27.63;;;16.00;99.90;;;;;;5061480;28;20481;-62
2023/09/11 04:06:13;;;;;;;29.70;26.67;;;15.90;99.90;;;;;;5061623;28;20577;-62
2023/09/11 04:08:41;;;;;;;31.70;28.30;;;15.90;99.90;;;;;;5061254;28;20593;-61
2023/09/11 04:11:09;;;;;;;31.00;27.83;;;15.90;99.90;;;;;;5064980;28;20861;-62
2023/09/11 04:13:37;;;;;;;31.20;28.00;;;15.90;99.90;;;;;;5065889;28;20576;-63
2023/09/11 04:16:05;;;;;;;31.67;28.03;;;15.90;99.90;;;;;;5062279;28;20968;-62
2023/09/11 04:18:33;;;;;;;32.60;29.20;;;15.90;99.90;;;;;;5065796;28;20475;-62
2023/09/11 04:21:04;;;;;;;31.00;27.90;;;15.90;99.90;;;;;;5064081;28;20501;-62
2023/09/11 04:23:32;;;;;;;33.53;30.00;;;15.80;99.90;;;;;;5061415;28;20552;-62
2023/09/11 04:26:00;;;;;;;36.50;32.60;;;15.80;99.90;;;;;;5060884;28;20553;-63
2023/09/11 04:28:28;;;;;;;34.70;31.30;;;15.90;99.90;;;;;;5057126;28;21026;-62
2023/09/11 04:30:56;;;;;;;37.10;33.17;;;15.90;99.90;;;;;;5059656;28;20501;-62
2023/09/11 04:33:24;;;;;;;35.40;31.60;;;15.90;99.90;;;;;;5055982;28;21056;-63
2023/09/11 04:35:52;;;;;;;37.47;33.70;;;16.00;99.90;;;;;;5059159;28;20609;-64
2023/09/11 04:38:22;;;;;;;35.97;32.17;;;16.00;99.90;;;;;;5055989;28;20473;-63
2023/09/11 04:40:56;;;;;;;34.57;31.07;;;16.00;99.90;;;;;;5056259;28;20465;-62
2023/09/11 04:43:24;;;;;;;35.90;32.20;;;16.00;99.90;;;;;;5063824;28;20524;-63
2023/09/11 04:45:52;;;;;;;34.90;30.20;;;16.00;99.90;;;;;;5061746;28;20489;-62
2023/09/11 04:48:20;;;;;;;34.50;30.80;;;15.90;99.90;;;;;;5061177;28;20559;-63
2023/09/11 04:50:48;;;;;;;35.77;31.97;;;15.90;99.90;;;;;;5053989;28;20473;-62
2023/09/11 04:53:16;;;;;;;35.47;31.67;;;15.90;99.90;;;;;;5061796;28;21013;-63
2023/09/11 04:55:47;;;;;;;35.30;31.50;;;15.90;99.90;;;;;;5058539;28;20490;-63
2023/09/11 04:58:15;;;;;;;35.43;31.97;;;15.90;99.90;;;;;;5049074;28;21113;-63
2023/09/11 05:00:43;;;;;;;34.23;30.53;;;15.90;99.90;;;;;;5050536;28;20569;-60
2023/09/11 05:03:11;;;;;;;33.47;29.90;;;15.90;99.90;;;;;;5057800;28;23456;-61
2023/09/11 05:05:41;;;;;;;37.50;33.50;;;15.90;99.90;;;;;;5060795;28;20505;-60
2023/09/11 05:08:09;;;;;;;35.67;31.87;;;15.90;99.90;;;;;;5060077;28;20543;-61
2023/09/11 05:10:41;;;;;;;36.40;32.50;;;16.00;99.90;;;;;;5058147;28;20510;-60
2023/09/11 05:13:11;;;;;;;39.43;33.30;;;16.00;99.90;;;;;;5061831;28;21065;-60
2023/09/11 05:15:39;;;;;;;35.00;31.27;;;16.00;99.90;;;;;;5058920;28;20520;-60
2023/09/11 05:18:07;;;;;;;37.63;33.53;;;16.00;99.90;;;;;;5056178;28;20474;-62
2023/09/11 05:20:35;;;;;;;32.17;28.93;;;16.10;99.90;;;;;;5062381;28;20982;-62
2023/09/11 05:23:05;;;;;;;36.30;32.60;;;16.10;99.90;;;;;;5058673;28;20941;-62
2023/09/11 05:25:34;;;;;;;34.07;30.30;;;16.10;99.90;;;;;;5056566;28;20497;-62
2023/09/11 05:28:02;;;;;;;36.63;31.63;;;16.20;99.90;;;;;;5054752;28;21080;-62
2023/09/11 05:30:32;;;;;;;34.93;31.33;;;16.20;99.90;;;;;;5030078;28;22007;-62
2023/09/11 05:33:00;;;;;;;35.70;31.90;;;16.20;99.90;;;;;;5031246;28;21315;-62
2023/09/11 05:35:28;;;;;;;34.37;30.67;;;16.20;99.90;;;;;;5046031;28;20539;-62
2023/09/11 05:37:56;;;;;;;34.50;30.73;;;16.20;99.90;;;;;;5055015;28;20590;-62
2023/09/11 05:40:24;;;;;;;37.30;32.20;;;16.20;99.90;;;;;;5052697;28;20703;-61
2023/09/11 05:42:52;;;;;;;35.57;31.90;;;16.30;99.90;;;;;;5053779;28;20484;-61
2023/09/11 05:45:20;;;;;;;36.10;31.40;;;16.20;99.90;;;;;;5036911;28;20497;-61
2023/09/11 05:47:49;;;;;;;34.60;31.00;;;16.30;99.90;;;;;;5049545;28;20497;-62
2023/09/11 05:50:17;;;;;;;34.23;30.73;;;16.30;99.90;;;;;;5047895;28;20497;-62
2023/09/11 05:52:45;;;;;;;33.13;29.77;;;16.30;99.90;;;;;;5051379;28;20600;-62
2023/09/11 05:55:13;;;;;;;35.10;31.47;;;16.30;99.90;;;;;;5059679;28;20485;-62
2023/09/11 05:57:41;;;;;;;32.40;29.03;;;16.30;99.90;;;;;;5049519;28;20869;-62
2023/09/11 06:00:12;;;;;;;32.90;29.40;;;16.30;99.90;;;;;;5059770;28;20466;-62
2023/09/11 06:02:41;;;;;;;33.43;29.87;;;16.30;99.90;;;;;;5060490;28;20542;-63
2023/09/11 06:05:10;;;;;;;32.27;28.93;;;16.40;99.90;;;;;;5058782;28;20509;-62
2023/09/11 06:07:38;;;;;;;33.50;29.97;;;16.50;99.90;;;;;;5058526;28;20496;-62
2023/09/11 06:10:10;;;;;;;35.10;31.50;;;16.50;99.90;;;;;;5055948;28;20466;-63
2023/09/11 06:12:38;;;;;;;35.30;31.90;;;16.50;99.90;;;;;;5058745;28;20774;-63
2023/09/11 06:15:07;;;;;;;31.93;28.43;;;16.50;99.90;;;;;;5061614;28;20587;-63
2023/09/11 06:17:35;;;;;;;31.93;28.83;;;16.60;99.90;;;;;;5067080;28;20903;-63
2023/09/11 06:20:15;;;;;;;31.77;28.50;;;16.60;99.90;;;;;;5062710;28;20464;-63
2023/09/11 06:22:44;;;;;;;30.97;27.80;;;16.70;99.90;;;;;;5060673;28;20496;-63
2023/09/11 06:25:12;;;;;;;31.17;28.13;;;16.70;99.90;;;;;;5055642;28;20572;-63
2023/09/11 06:27:40;;;;;;;31.17;27.97;;;16.70;99.90;;;;;;5060049;28;21040;-63
2023/09/11 06:30:09;;;;;;;30.87;27.87;;;16.70;99.90;;;;;;5065573;28;20480;-63
2023/09/11 06:32:37;;;;;;;29.90;27.00;;;16.70;99.90;;;;;;5058663;28;20496;-63
2023/09/11 06:35:07;;;;;;;30.30;27.07;;;16.70;99.90;;;;;;5064602;28;20503;-64
2023/09/11 06:37:36;;;;;;;28.90;26.10;;;16.80;99.90;;;;;;5061656;28;20873;-63
2023/09/11 06:40:07;;;;;;;29.37;26.47;;;16.80;99.90;;;;;;5064667;28;20496;-64
2023/09/11 06:42:36;;;;;;;27.67;24.97;;;16.80;99.90;;;;;;5059711;28;20488;-63
2023/09/11 06:45:04;;;;;;;30.33;27.33;;;16.90;99.90;;;;;;5064061;28;20492;-63
2023/09/11 06:47:33;;;;;;;29.00;26.37;;;16.90;99.90;;;;;;5064302;28;20476;-63
2023/09/11 06:50:01;;;;;;;28.83;26.03;;;17.00;99.90;;;;;;5060723;28;20557;-63
2023/09/11 06:52:29;;;;;;;29.77;26.67;;;17.10;99.90;;;;;;5057140;28;20495;-63
2023/09/11 06:54:58;;;;;;;28.70;26.10;;;17.20;99.90;;;;;;5063208;28;21044;-63
2023/09/11 06:57:26;;;;;;;28.57;25.57;;;17.20;99.90;;;;;;5059499;28;20469;-63
2023/09/11 06:59:54;;;;;;;28.37;25.73;;;17.30;99.90;;;;;;5064449;28;20551;-64
2023/09/11 07:02:22;;;;;;;28.77;26.03;;;17.30;99.90;;;;;;5058900;28;20489;-64
2023/09/11 07:04:50;;;;;;;26.10;23.80;;;17.40;99.90;;;;;;5063961;28;20521;-64
2023/09/11 07:07:18;;;;;;;29.23;26.33;;;17.40;99.90;;;;;;5063608;28;20487;-64
2023/09/11 07:09:48;;;;;;;28.20;25.70;;;17.50;99.90;;;;;;5057815;28;20469;-64
2023/09/11 07:12:22;;;;;;;27.80;25.10;;;17.50;99.90;;;;;;5052579;28;21428;-64
2023/09/11 07:14:53;;;;;;;26.20;23.60;;;17.60;99.90;;;;;;5055730;28;20499;-64
2023/09/11 07:17:21;;;;;;;27.27;24.77;;;17.70;99.90;;;;;;5058609;28;20501;-64
2023/09/11 07:19:49;;;;;;;26.37;23.83;;;17.80;99.90;;;;;;5062892;28;20553;-63
2023/09/11 07:22:17;;;;;;;26.50;23.93;;;17.90;99.90;;;;;;5066226;28;20485;-64
2023/09/11 07:24:45;;;;;;;27.10;24.40;;;17.90;99.90;;;;;;5067312;28;20485;-64
2023/09/11 07:27:13;;;;;;;23.80;21.57;;;18.00;99.90;;;;;;5057791;28;20477;-66
2023/09/11 07:29:43;;;;;;;26.47;23.90;;;18.00;99.90;;;;;;5059085;28;20516;-64
2023/09/11 07:32:11;;;;;;;26.00;23.70;;;18.00;99.90;;;;;;5055180;28;20915;-64
2023/09/11 07:34:39;;;;;;;27.80;25.10;;;18.10;99.90;;;;;;5058241;28;20575;-64
2023/09/11 07:37:07;;;;;;;24.23;21.93;;;18.10;99.90;;;;;;5065216;28;20742;-64
2023/09/11 07:39:35;;;;;;;25.00;22.80;;;18.20;99.90;;;;;;5064419;28;20605;-64
2023/09/11 07:42:03;;;;;;;26.77;24.33;;;18.20;99.90;;;;;;5062211;28;20562;-64
2023/09/11 07:44:31;;;;;;;24.97;22.67;;;18.20;99.90;;;;;;5057794;28;20492;-64
2023/09/11 07:47:01;;;;;;;25.23;22.63;;;18.30;99.90;;;;;;5062096;28;20458;-64
2023/09/11 07:49:30;;;;;;;24.73;22.40;;;18.40;99.90;;;;;;5056324;28;20505;-64
2023/09/11 07:51:58;;;;;;;24.73;22.53;;;18.50;99.90;;;;;;5057054;28;20565;-64
2023/09/11 07:54:26;;;;;;;25.23;22.77;;;18.70;99.90;;;;;;5055319;28;20489;-64
2023/09/11 07:56:54;;;;;;;25.70;23.20;;;18.70;99.90;;;;;;5057194;28;20469;-64
2023/09/11 07:59:22;;;;;;;25.47;23.07;;;18.80;99.90;;;;;;5060449;28;20488;-64
2023/09/11 08:01:50;;;;;;;26.60;23.90;;;18.80;99.90;;;;;;5056770;28;21066;-64
2023/09/11 08:04:19;;;;;;;24.47;22.07;;;18.90;99.90;;;;;;5059366;28;20568;-64
2023/09/11 08:06:47;;;;;;;24.10;21.67;;;19.00;99.90;;;;;;5066459;28;21006;-63
2023/09/11 08:09:15;;;;;;;23.47;21.10;;;19.10;99.90;;;;;;5063180;28;20992;-63
2023/09/11 08:11:44;;;;;;;23.17;21.10;;;19.20;99.90;;;;;;5060160;28;21021;-64
2023/09/11 08:14:12;;;;;;;23.93;21.43;;;19.30;99.90;;;;;;5053290;28;21065;-64
2023/09/11 08:16:40;;;;;;;22.57;20.37;;;19.40;99.90;;;;;;5062972;28;20568;-63
2023/09/11 08:19:09;;;;;;;23.70;21.20;;;19.50;99.90;;;;;;5061160;28;20470;-63
2023/09/11 08:21:38;;;;;;;22.30;20.30;;;19.60;99.90;;;;;;5057720;28;20580;-63
2023/09/11 08:24:06;;;;;;;21.47;19.37;;;19.70;99.90;;;;;;5062282;28;20558;-63
2023/09/11 08:26:34;;;;;;;23.17;21.17;;;19.70;99.90;;;;;;5060322;28;20469;-63
2023/09/11 08:29:03;;;;;;;21.33;19.33;;;19.80;99.90;;;;;;5053048;28;20561;-63
2023/09/11 08:31:32;;;;;;;20.80;18.93;;;19.90;99.90;;;;;;5059483;28;20488;-63
2023/09/11 08:34:00;;;;;;;19.47;17.63;;;20.00;99.90;;;;;;5057441;28;20494;-63
2023/09/11 08:36:29;;;;;;;20.37;18.50;;;20.10;99.90;;;;;;5059853;28;20535;-63
2023/09/11 08:38:58;;;;;;;20.30;18.30;;;20.10;99.90;;;;;;5061530;28;20548;-63
2023/09/11 08:41:27;;;;;;;22.00;20.00;;;20.20;99.90;;;;;;5060522;28;20500;-63
2023/09/11 08:43:55;;;;;;;19.13;17.43;;;20.30;99.90;;;;;;5061376;28;20549;-64
2023/09/11 08:46:24;;;;;;;20.53;18.53;;;20.40;99.90;;;;;;5063875;28;20497;-64
2023/09/11 08:48:55;;;;;;;19.40;17.70;;;20.50;99.90;;;;;;5060886;28;20465;-64
2023/09/11 08:51:29;;;;;;;18.97;17.37;;;20.60;99.90;;;;;;5060884;28;20486;-63
2023/09/11 08:54:01;;;;;;;19.23;17.30;;;20.70;99.90;;;;;;5056538;28;20465;-63
2023/09/11 08:56:31;;;;;;;16.93;15.53;;;20.90;99.90;;;;;;5061747;28;20488;-64
2023/09/11 08:59:00;;;;;;;18.57;16.87;;;21.00;99.90;;;;;;5062528;28;20564;-64
2023/09/11 09:01:29;;;;;;;17.90;16.20;;;21.10;99.90;;;;;;5060149;28;21238;-63
2023/09/11 09:03:59;;;;;;;16.70;15.20;;;21.20;99.90;;;;;;5063432;28;21047;-63
2023/09/11 09:06:28;;;;;;;17.07;15.50;;;21.20;99.90;;;;;;5057708;28;21118;-63
2023/09/11 09:08:58;;;;;;;16.43;15.13;;;21.40;99.90;;;;;;5064316;28;21725;-63
2023/09/11 09:11:27;;;;;;;16.90;15.40;;;21.50;99.90;;;;;;5052081;28;20993;-63
2023/09/11 09:13:56;;;;;;;17.83;16.30;;;21.60;99.90;;;;;;5059559;28;20982;-63
2023/09/11 09:16:24;;;;;;;16.60;14.83;;;21.70;99.90;;;;;;5059955;28;20493;-64
2023/09/11 09:18:52;;;;;;;16.77;15.00;;;21.80;99.90;;;;;;5056247;28;20465;-63
2023/09/11 09:21:25;;;;;;;15.80;14.33;;;21.90;99.90;;;;;;5054954;28;20485;-64
2023/09/11 09:23:53;;;;;;;15.50;14.00;;;22.00;99.90;;;;;;5062290;28;21030;-64
2023/09/11 09:26:24;;;;;;;15.00;13.50;;;22.10;99.90;;;;;;5055565;28;20494;-63
2023/09/11 09:28:54;;;;;;;13.67;12.57;;;22.20;99.90;;;;;;5049501;28;20473;-63
2023/09/11 09:31:24;;;;;;;14.23;13.10;;;22.30;99.90;;;;;;5058795;28;20489;-64
2023/09/11 09:33:55;;;;;;;14.03;12.67;;;22.40;99.90;;;;;;5052163;28;20962;-63
2023/09/11 09:36:24;;;;;;;13.53;12.23;;;22.50;99.90;;;;;;5062413;28;20495;-63
2023/09/11 09:38:52;;;;;;;13.57;12.17;;;22.60;99.90;;;;;;5062747;28;20560;-64
2023/09/11 09:41:21;;;;;;;13.50;12.20;;;22.70;99.90;;;;;;5045297;28;20576;-64
2023/09/11 09:43:54;;;;;;;13.17;11.87;;;22.80;99.90;;;;;;5044819;28;20673;-64
2023/09/11 09:46:23;;;;;;;12.70;11.60;;;22.90;99.90;;;;;;5051076;28;20486;-64
2023/09/11 09:48:52;;;;;;;11.83;10.90;;;23.00;99.90;;;;;;5059921;28;20472;-64
2023/09/11 09:51:21;;;;;;;12.97;11.87;;;23.10;99.90;;;;;;5057434;28;20504;-64
2023/09/11 09:53:54;;;;;;;12.57;11.67;;;23.20;99.90;;;;;;5047407;28;20519;-63
2023/09/11 09:56:22;;;;;;;12.10;11.03;;;23.30;99.90;;;;;;5059129;28;20493;-63
2023/09/11 09:58:50;;;;;;;12.60;11.60;;;23.30;99.90;;;;;;5051738;28;20458;-63
2023/09/11 10:01:23;;;;;;;12.90;11.63;;;23.40;99.90;;;;;;5058224;28;20531;-64
2023/09/11 10:03:53;;;;;;;11.27;10.37;;;23.50;99.90;;;;;;5050593;28;20484;-63
2023/09/11 10:06:23;;;;;;;12.40;11.40;;;23.60;99.90;;;;;;5059779;28;20478;-63
2023/09/11 10:09:05;;;;;;;12.80;11.53;;;23.80;99.90;;;;;;5054377;28;20548;-63
2023/09/11 10:11:35;;;;;;;12.07;11.17;;;23.80;99.90;;;;;;5058423;28;20481;-63
2023/09/11 10:14:05;;;;;;;11.60;10.80;;;23.90;99.90;;;;;;5055497;28;20548;-63
2023/09/11 10:16:34;;;;;;;11.83;10.93;;;24.00;99.90;;;;;;5055713;28;20628;-63
2023/09/11 10:19:03;;;;;;;11.90;10.77;;;24.10;99.90;;;;;;5055782;28;20963;-64
2023/09/11 10:21:32;;;;;;;12.67;11.57;;;24.20;99.90;;;;;;5059478;28;20505;-63
2023/09/11 10:24:01;;;;;;;11.80;10.83;;;24.30;99.90;;;;;;5061127;28;20964;-64
2023/09/11 10:26:37;;;;;;;11.63;10.50;;;24.40;99.90;;;;;;5055974;28;20477;-63
2023/09/11 10:29:07;;;;;;;11.80;10.90;;;24.60;99.90;;;;;;5058693;28;20477;-64
2023/09/11 10:31:46;;;;;;;11.40;10.40;;;24.70;99.90;;;;;;5059193;28;20485;-64
2023/09/11 10:34:15;;;;;;;11.73;10.70;;;24.80;99.90;;;;;;5062062;28;20847;-63
2023/09/11 10:36:50;;;;;;;11.47;10.43;;;24.90;99.90;;;;;;5058998;28;21113;-62
2023/09/11 10:39:20;;;;;;;10.47;9.47;;;25.00;99.90;;;;;;5056736;28;21039;-60
2023/09/11 10:41:49;;;;;;;11.30;10.30;;;25.10;99.90;;;;;;5047162;28;20488;-61
2023/09/11 10:44:17;;;;;;;10.80;10.00;;;25.20;99.90;;;;;;5060483;28;20480;-61
2023/09/11 10:46:52;;;;;;;11.70;10.60;;;25.40;99.90;;;;;;5050179;28;20462;-61
2023/09/11 10:49:22;;;;;;;10.83;9.93;;;25.50;99.90;;;;;;5061921;28;20468;-61
2023/09/11 10:51:51;;;;;;;10.90;9.90;;;25.60;99.90;;;;;;5060125;28;20501;-60
2023/09/11 10:54:22;;;;;;;11.50;10.27;;;25.70;99.90;;;;;;5056466;28;20556;-60
2023/09/11 10:56:51;;;;;;;13.43;9.93;;;25.80;99.90;;;;;;5059021;28;20538;-60
2023/09/11 10:59:23;;;;;;;11.80;10.80;;;25.90;99.90;;;;;;5060845;28;20465;-60
2023/09/11 11:01:53;;;;;;;10.73;9.77;;;26.00;99.90;;;;;;5055540;28;20493;-61
2023/09/11 11:04:24;;;;;;;11.10;9.97;;;26.20;99.90;;;;;;5063230;28;21097;-61
2023/09/11 11:06:55;;;;;;;13.03;9.63;;;26.30;99.90;;;;;;5063245;28;20472;-61
2023/09/11 11:09:24;;;;;;;11.10;9.20;;;26.40;99.90;;;;;;5056708;28;20888;-61
2023/09/11 11:11:58;;;;;;;10.73;9.60;;;26.40;99.90;;;;;;5062491;28;20479;-60
2023/09/11 11:14:26;;;;;;;11.47;9.30;;;26.60;99.90;;;;;;5060975;28;20497;-60
2023/09/11 11:16:59;;;;;;;11.17;9.70;;;26.70;99.90;;;;;;5053833;28;21043;-61
2023/09/11 11:19:31;;;;;;;11.83;10.63;;;26.80;99.90;;;;;;5061423;28;20481;-60
2023/09/11 11:22:01;;;;;;;10.43;9.37;;;27.00;99.90;;;;;;5058886;28;20582;-60
2023/09/11 11:24:34;;;;;;;10.83;9.83;;;27.20;99.90;;;;;;5053696;28;20499;-61
2023/09/11 11:27:04;;;;;;;10.80;9.70;;;27.30;99.90;;;;;;5052257;28;21193;-60
2023/09/11 11:29:33;;;;;;;11.50;10.50;;;27.30;99.90;;;;;;5060202;28;20974;-60
2023/09/11 11:32:07;;;;;;;11.70;10.63;;;27.40;99.90;;;;;;5053328;28;21087;-60
2023/09/11 11:34:37;;;;;;;12.30;10.20;;;27.50;99.90;;;;;;5051430;28;20508;-61
2023/09/11 11:37:06;;;;;;;13.87;10.93;;;27.70;99.90;;;;;;5054856;28;20565;-60
2023/09/11 11:39:36;;;;;;;10.80;9.80;;;27.80;99.90;;;;;;5056485;28;21327;-60
2023/09/11 11:42:07;;;;;;;12.00;10.87;;;28.00;99.90;;;;;;5052241;28;20524;-61
2023/09/11 11:44:37;;;;;;;11.13;9.87;;;28.20;99.90;;;;;;5054729;28;20732;-61
2023/09/11 11:47:07;;;;;;;11.73;10.57;;;28.30;99.90;;;;;;5057433;28;20592;-65
2023/09/11 11:49:36;;;;;;;11.10;10.13;;;28.30;99.90;;;;;;5060745;28;20479;-62
2023/09/11 11:52:05;;;;;;;11.47;10.47;;;28.50;99.90;;;;;;5062523;28;21044;-64
2023/09/11 11:54:34;;;;;;;12.80;11.40;;;28.60;99.90;;;;;;5060173;28;20546;-63
2023/09/11 11:57:05;;;;;;;11.80;10.70;;;28.80;99.90;;;;;;5063379;28;20494;-64
2023/09/11 11:59:34;;;;;;;11.57;10.40;;;29.00;99.90;;;;;;5055675;28;20889;-61
2023/09/11 12:02:03;;;;;;;11.60;10.50;;;29.20;99.90;;;;;;5054864;28;21690;-60
2023/09/11 12:04:32;;;;;;;12.40;11.10;;;29.40;99.90;;;;;;5056181;28;20485;-60
2023/09/11 12:07:03;;;;;;;11.53;10.37;;;29.40;99.90;;;;;;5066137;28;20600;-60
2023/09/11 12:09:32;;;;;;;12.80;11.80;;;29.50;99.90;;;;;;5059633;28;20543;-61
2023/09/11 12:12:00;;;;;;;12.33;11.20;;;29.60;99.90;;;;;;5060524;28;21005;-61
2023/09/11 12:14:28;;;;;;;12.27;11.17;;;29.70;99.90;;;;;;5052420;28;20498;-61
2023/09/11 12:16:57;;;;;;;11.77;10.77;;;29.80;99.90;;;;;;5051327;28;20489;-61
2023/09/11 12:19:25;;;;;;;11.13;10.23;;;29.90;99.90;;;;;;5055091;28;20519;-61
2023/09/11 12:21:57;;;;;;;12.20;11.10;;;30.00;99.90;;;;;;5052531;28;20771;-61
2023/09/11 12:24:26;;;;;;;11.63;10.47;;;30.20;99.90;;;;;;5057142;28;20573;-61
2023/09/11 12:26:54;;;;;;;12.47;11.27;;;30.30;99.90;;;;;;5059368;28;20459;-60
2023/09/11 12:29:23;;;;;;;12.30;11.10;;;30.40;99.90;;;;;;5059479;28;21158;-61
2023/09/11 12:31:51;;;;;;;11.50;10.70;;;30.40;99.90;;;;;;5058517;28;20489;-60
2023/09/11 12:34:19;;;;;;;12.93;11.80;;;30.40;99.90;;;;;;5059120;28;20564;-61
2023/09/11 12:36:47;;;;;;;12.97;11.60;;;30.50;99.90;;;;;;5060549;28;20493;-61
2023/09/11 12:39:17;;;;;;;12.03;11.07;;;30.70;99.90;;;;;;5044861;28;23149;-61